KSTK/STK METAR and TAF weather

Enter ICAO airport designator
Station Type Date Time Source
KSTK METAR 2021/09/27 06:35 UTC NOAA

KSTK 270635Z AUTO 29003KT 10SM CLR 13/01 A2995 RMK AO2


Station Type Date Time Source
KSTK Decoded METAR 2021/09/27 06:35 UTC NOAA

Station name not available
Sep 27, 2021 - 02:35 AM EDT / 2021.09.27 0635 UTC
Wind: from the WNW (290 degrees) at 3 MPH (3 KT):0
Visibility: 10 mile(s):0
Sky conditions: clear
Temperature: 55 F (13 C)
Dew Point: 33 F (1 C)
Relative Humidity: 43%
Pressure (altimeter): 29.95 in. Hg (1014 hPa)
ob: KSTK 270635Z AUTO 29003KT 10SM CLR 13/01 A2995 RMK AO2
cycle: 6

Station Type Date Time Source
KSTK TAF UTC NOAA

Error!

Example: see airport list